Time;durP1;ratioP1;P1;durP2;ratioP2;P2;SDS_P1;SDS_P2;PMS_P1;PMS_P2;Temp;Humidity;BMP_temperature;BMP_pressure;BME280_temperature;BME280_humidity;BME280_pressure;Samples;Min_cycle;Max_cycle;Signal;HPM_P1;HPM_P2
2021/08/04 00:00:36;;;;;;;3.08;2.70;;;;;;;;;;1471750;40;20532;-80
2021/08/04 00:01:43;;;;;;;3.20;2.72;;;;;;;;;;1472192;40;20406;-80
2021/08/04 00:02:47;;;;;;;3.53;2.92;;;;;;;;;;1471568;40;20445;-80
2021/08/04 00:03:52;;;;;;;3.50;3.20;;;;;;;;;;1467267;40;20396;-80
2021/08/04 00:05:09;;;;;;;5.47;3.42;;;;;;;;;;1473361;40;20407;-80
2021/08/04 00:06:10;;;;;;;6.70;3.25;;;;;;;;;;1478812;40;20422;-80
2021/08/04 00:07:14;;;;;;;3.28;2.92;;;;;;;;;;1479827;40;20422;-80
2021/08/04 00:08:16;;;;;;;4.43;3.78;;;;;;;;;;1476719;40;20482;-81
2021/08/04 00:09:17;;;;;;;3.40;2.53;;;;;;;;;;1474762;40;20414;-80
2021/08/04 00:10:20;;;;;;;3.65;2.85;;;;;;;;;;1478780;40;20797;-80
2021/08/04 00:11:22;;;;;;;4.45;3.40;;;;;;;;;;1479370;40;20425;-80
2021/08/04 00:12:23;;;;;;;5.50;3.67;;;;;;;;;;1474517;40;20456;-81
2021/08/04 00:13:27;;;;;;;3.20;2.85;;;;;;;;;;1470196;40;20402;-80
2021/08/04 00:14:29;;;;;;;4.53;3.00;;;;;;;;;;1467053;40;20400;-82
2021/08/04 00:15:31;;;;;;;3.33;3.03;;;;;;;;;;1467545;40;20416;-83
2021/08/04 00:16:38;;;;;;;3.50;2.70;;;;;;;;;;1476059;40;20823;-82
2021/08/04 00:17:42;;;;;;;3.03;2.70;;;;;;;;;;1476187;40;20388;-80
2021/08/04 00:18:50;;;;;;;4.85;3.53;;;;;;;;;;1477365;40;20407;-80
2021/08/04 00:19:54;;;;;;;3.47;3.05;;;;;;;;;;1480585;40;20851;-80
2021/08/04 00:20:56;;;;;;;3.88;3.50;;;;;;;;;;1475716;40;20464;-79
2021/08/04 00:22:04;;;;;;;4.05;2.78;;;;;;;;;;1467689;40;20423;-78
2021/08/04 00:23:07;;;;;;;4.25;2.78;;;;;;;;;;1472727;40;20457;-79
2021/08/04 00:24:11;;;;;;;4.15;2.95;;;;;;;;;;1479521;40;20410;-80
2021/08/04 00:25:13;;;;;;;3.70;3.35;;;;;;;;;;1474789;40;20477;-81
2021/08/04 00:26:14;;;;;;;4.55;2.97;;;;;;;;;;1475719;40;20541;-80
2021/08/04 00:27:16;;;;;;;3.35;3.00;;;;;;;;;;1480501;40;20386;-80
2021/08/04 00:28:19;;;;;;;3.50;3.20;;;;;;;;;;1474652;40;20403;-80
2021/08/04 00:29:21;;;;;;;4.60;3.15;;;;;;;;;;1472564;40;20430;-80
2021/08/04 00:30:23;;;;;;;4.53;3.33;;;;;;;;;;1476929;40;20797;-80
2021/08/04 00:31:25;;;;;;;3.83;2.83;;;;;;;;;;1473522;40;20938;-80
2021/08/04 00:32:26;;;;;;;3.78;3.47;;;;;;;;;;1469552;40;20417;-80
2021/08/04 00:33:28;;;;;;;3.92;3.53;;;;;;;;;;1474186;40;20452;-80
2021/08/04 00:34:29;;;;;;;4.63;3.10;;;;;;;;;;1465577;40;21158;-82
2021/08/04 00:35:31;;;;;;;5.82;3.70;;;;;;;;;;1465669;40;20451;-83
2021/08/04 00:36:33;;;;;;;4.83;3.87;;;;;;;;;;1469654;40;20589;-82
2021/08/04 00:37:34;;;;;;;4.65;3.67;;;;;;;;;;1469658;40;20414;-80
2021/08/04 00:38:36;;;;;;;5.28;4.00;;;;;;;;;;1469986;40;20445;-81
2021/08/04 00:39:38;;;;;;;4.97;3.83;;;;;;;;;;1473522;40;20415;-80
2021/08/04 00:40:41;;;;;;;3.95;3.63;;;;;;;;;;1469774;40;20499;-80
2021/08/04 00:41:43;;;;;;;6.10;4.30;;;;;;;;;;1470029;40;20480;-80
2021/08/04 00:42:45;;;;;;;6.57;4.35;;;;;;;;;;1473630;40;20415;-79
2021/08/04 00:43:46;;;;;;;4.18;3.85;;;;;;;;;;1473527;40;20411;-80
2021/08/04 00:44:49;;;;;;;4.85;4.45;;;;;;;;;;1477431;40;20776;-79
2021/08/04 00:45:51;;;;;;;4.78;4.30;;;;;;;;;;1477697;40;20560;-80
2021/08/04 00:46:52;;;;;;;5.45;4.88;;;;;;;;;;1478197;40;21117;-81
2021/08/04 00:47:56;;;;;;;5.35;4.72;;;;;;;;;;1469186;40;21004;-80
2021/08/04 00:48:58;;;;;;;5.68;4.70;;;;;;;;;;1465876;40;20778;-80
2021/08/04 00:50:00;;;;;;;5.85;4.80;;;;;;;;;;1473685;40;20462;-80
2021/08/04 00:51:02;;;;;;;6.22;5.10;;;;;;;;;;1473490;40;20457;-80
2021/08/04 00:52:04;;;;;;;5.30;4.80;;;;;;;;;;1469284;40;20859;-80
2021/08/04 00:53:23;;;;;;;5.38;4.88;;;;;;;;;;1473560;40;20471;-80
2021/08/04 00:54:25;;;;;;;6.75;5.50;;;;;;;;;;1477409;40;20489;-80
2021/08/04 00:55:27;;;;;;;4.82;4.43;;;;;;;;;;1477423;40;20450;-80
2021/08/04 00:56:29;;;;;;;5.87;5.33;;;;;;;;;;1477598;40;20498;-82
2021/08/04 00:57:30;;;;;;;5.03;4.50;;;;;;;;;;1478158;40;20681;-82
2021/08/04 00:58:38;;;;;;;5.28;4.78;;;;;;;;;;1473287;40;20792;-83
2021/08/04 00:59:39;;;;;;;6.85;5.53;;;;;;;;;;1474183;40;20473;-80
2021/08/04 01:00:45;;;;;;;4.70;4.20;;;;;;;;;;1473312;40;20432;-80
2021/08/04 01:01:51;;;;;;;6.28;5.10;;;;;;;;;;1474010;40;20384;-80
2021/08/04 01:03:01;;;;;;;7.50;5.30;;;;;;;;;;1477886;40;20418;-80
2021/08/04 01:04:09;;;;;;;4.60;4.20;;;;;;;;;;1477695;40;20853;-81
2021/08/04 01:05:17;;;;;;;5.65;5.00;;;;;;;;;;1477630;40;20430;-80
2021/08/04 01:06:47;;;;;;;5.05;4.55;;;;;;;;;;1477886;40;20764;-80
2021/08/04 01:08:11;;;;;;;6.65;5.32;;;;;;;;;;1473107;40;20643;-80
2021/08/04 01:09:16;;;;;;;5.30;4.80;;;;;;;;;;1470884;40;20420;-81
2021/08/04 01:10:22;;;;;;;5.35;4.43;;;;;;;;;;1474616;40;20424;-80
2021/08/04 01:11:29;;;;;;;5.35;4.55;;;;;;;;;;1478311;40;20391;-79
2021/08/04 01:12:40;;;;;;;4.97;4.55;;;;;;;;;;1478053;40;20391;-83
2021/08/04 01:13:49;;;;;;;5.45;4.93;;;;;;;;;;1478178;40;20532;-80
2021/08/04 01:14:57;;;;;;;5.75;4.95;;;;;;;;;;1478061;40;20441;-80
2021/08/04 01:16:06;;;;;;;6.72;5.43;;;;;;;;;;1478103;40;20407;-80
2021/08/04 01:17:10;;;;;;;6.55;4.53;;;;;;;;;;1473524;40;20407;-80
2021/08/04 01:18:18;;;;;;;5.65;5.15;;;;;;;;;;1469741;40;20445;-80
2021/08/04 01:20:00;;;;;;;6.05;4.97;;;;;;;;;;1473691;40;20462;-79
2021/08/04 01:21:02;;;;;;;5.70;5.18;;;;;;;;;;1474688;40;20408;-80
2021/08/04 01:22:29;;;;;;;6.15;5.50;;;;;;;;;;1469612;40;20524;-79
2021/08/04 01:23:42;;;;;;;5.32;4.50;;;;;;;;;;1473236;40;20455;-82
2021/08/04 01:25:00;;;;;;;5.90;5.13;;;;;;;;;;1474062;40;20469;-81
2021/08/04 01:26:07;;;;;;;6.93;5.90;;;;;;;;;;1478018;40;20527;-81
2021/08/04 01:27:14;;;;;;;5.82;5.32;;;;;;;;;;1477691;40;20402;-80
2021/08/04 01:28:17;;;;;;;6.97;5.55;;;;;;;;;;1478154;40;20402;-81
2021/08/04 01:29:22;;;;;;;6.35;5.72;;;;;;;;;;1477996;40;20433;-80
2021/08/04 01:30:23;;;;;;;5.63;5.13;;;;;;;;;;1473343;40;20763;-80
2021/08/04 01:31:28;;;;;;;5.97;5.47;;;;;;;;;;1461415;40;20521;-80
2021/08/04 01:32:30;;;;;;;6.00;5.32;;;;;;;;;;1466008;40;20821;-82
2021/08/04 01:33:34;;;;;;;6.47;5.80;;;;;;;;;;1469061;40;20426;-83
2021/08/04 01:34:39;;;;;;;8.63;5.35;;;;;;;;;;1470027;40;20535;-80
2021/08/04 01:35:42;;;;;;;5.93;5.30;;;;;;;;;;1477939;40;20871;-80
2021/08/04 01:36:45;;;;;;;7.00;5.80;;;;;;;;;;1473659;40;20428;-80
2021/08/04 01:37:47;;;;;;;9.13;6.10;;;;;;;;;;1473377;40;20721;-80
2021/08/04 01:38:51;;;;;;;6.13;5.57;;;;;;;;;;1477974;40;21039;-80
2021/08/04 01:39:57;;;;;;;6.50;5.50;;;;;;;;;;1473123;40;21174;-80
2021/08/04 01:41:00;;;;;;;7.20;6.53;;;;;;;;;;1473696;40;20396;-80
2021/08/04 01:42:04;;;;;;;7.67;5.47;;;;;;;;;;1477636;40;20550;-79
2021/08/04 01:43:08;;;;;;;6.65;5.68;;;;;;;;;;1469481;40;20425;-81
2021/08/04 01:44:11;;;;;;;6.30;5.75;;;;;;;;;;1469976;40;20413;-80
2021/08/04 01:45:13;;;;;;;6.80;5.47;;;;;;;;;;1470025;40;20812;-79
2021/08/04 01:46:14;;;;;;;7.35;5.72;;;;;;;;;;1470891;40;20483;-80
2021/08/04 01:47:16;;;;;;;8.80;5.57;;;;;;;;;;1474962;40;20467;-81
2021/08/04 01:48:19;;;;;;;8.30;6.00;;;;;;;;;;1470598;40;20477;-80
2021/08/04 01:49:21;;;;;;;8.60;6.30;;;;;;;;;;1467061;40;20549;-79
2021/08/04 01:50:25;;;;;;;6.07;5.47;;;;;;;;;;1471311;40;20461;-81
2021/08/04 01:51:28;;;;;;;6.70;5.88;;;;;;;;;;1473687;40;20534;-81
2021/08/04 01:52:30;;;;;;;6.55;5.72;;;;;;;;;;1473935;40;20404;-80
2021/08/04 01:53:33;;;;;;;5.72;5.32;;;;;;;;;;1473916;40;20687;-82
2021/08/04 01:54:35;;;;;;;6.28;5.70;;;;;;;;;;1469584;40;20487;-80
2021/08/04 01:55:37;;;;;;;7.25;6.15;;;;;;;;;;1465289;40;20466;-81
2021/08/04 01:56:39;;;;;;;7.68;5.57;;;;;;;;;;1469746;40;20402;-80
2021/08/04 01:57:41;;;;;;;6.40;5.72;;;;;;;;;;1473539;40;21167;-80
2021/08/04 01:58:44;;;;;;;6.68;5.78;;;;;;;;;;1473248;40;21119;-80
2021/08/04 01:59:45;;;;;;;6.22;5.63;;;;;;;;;;1478373;40;20409;-80
2021/08/04 02:00:47;;;;;;;10.57;5.90;;;;;;;;;;1478342;40;20583;-80
2021/08/04 02:01:49;;;;;;;8.63;5.68;;;;;;;;;;1469483;40;20413;-80
2021/08/04 02:02:51;;;;;;;6.40;5.80;;;;;;;;;;1469535;40;20440;-82
2021/08/04 02:03:53;;;;;;;6.40;5.40;;;;;;;;;;1469468;40;20452;-80
2021/08/04 02:04:54;;;;;;;7.07;6.07;;;;;;;;;;1473638;40;20459;-80
2021/08/04 02:06:01;;;;;;;6.50;5.90;;;;;;;;;;1473522;40;20477;-79
2021/08/04 02:07:08;;;;;;;6.78;5.90;;;;;;;;;;1473458;40;20810;-80
2021/08/04 02:08:28;;;;;;;8.02;6.65;;;;;;;;;;1473620;40;20493;-80
2021/08/04 02:09:37;;;;;;;7.22;6.03;;;;;;;;;;1474596;40;20806;-82
2021/08/04 02:10:53;;;;;;;6.47;5.88;;;;;;;;;;1478088;40;20454;-79
2021/08/04 02:12:01;;;;;;;6.88;6.20;;;;;;;;;;1479192;40;20457;-81
2021/08/04 02:13:27;;;;;;;7.15;6.05;;;;;;;;;;1481795;40;20398;-82
2021/08/04 02:15:11;;;;;;;7.10;6.50;;;;;;;;;;1468704;40;20411;-80
2021/08/04 02:16:37;;;;;;;6.88;6.25;;;;;;;;;;1480364;40;20430;-80
2021/08/04 02:17:43;;;;;;;7.40;6.30;;;;;;;;;;1479264;40;20849;-80
2021/08/04 02:18:51;;;;;;;7.30;6.40;;;;;;;;;;1479716;40;20401;-80
2021/08/04 02:20:24;;;;;;;7.53;6.82;;;;;;;;;;1476712;40;20908;-80
2021/08/04 02:21:28;;;;;;;6.70;6.10;;;;;;;;;;1475191;40;20462;-81
2021/08/04 02:22:35;;;;;;;8.77;6.22;;;;;;;;;;1479498;40;20418;-81
2021/08/04 02:23:38;;;;;;;8.20;6.25;;;;;;;;;;1477090;40;20877;-80
2021/08/04 02:24:47;;;;;;;8.38;7.18;;;;;;;;;;1476379;40;20400;-80
2021/08/04 02:25:50;;;;;;;7.00;6.20;;;;;;;;;;1483648;40;20466;-82
2021/08/04 02:26:54;;;;;;;7.90;6.93;;;;;;;;;;1480249;40;20408;-81
2021/08/04 02:27:56;;;;;;;7.55;6.82;;;;;;;;;;1480014;40;20466;-82
2021/08/04 02:29:01;;;;;;;10.45;6.50;;;;;;;;;;1475444;40;20453;-79
2021/08/04 02:30:05;;;;;;;7.72;6.93;;;;;;;;;;1475745;40;20439;-80
2021/08/04 02:31:09;;;;;;;6.97;6.28;;;;;;;;;;1482067;40;20386;-80
2021/08/04 02:32:12;;;;;;;6.90;6.23;;;;;;;;;;1484191;40;20518;-82
2021/08/04 02:33:15;;;;;;;6.68;6.05;;;;;;;;;;1484185;40;20398;-82
2021/08/04 02:34:19;;;;;;;7.03;6.35;;;;;;;;;;1483900;40;20597;-80
2021/08/04 02:35:20;;;;;;;8.20;6.63;;;;;;;;;;1480153;40;20425;-80
2021/08/04 02:36:22;;;;;;;9.07;6.78;;;;;;;;;;1475225;40;20821;-80
2021/08/04 02:37:24;;;;;;;7.47;6.65;;;;;;;;;;1475406;40;20443;-81
2021/08/04 02:38:28;;;;;;;7.80;7.00;;;;;;;;;;1479131;40;20402;-80
2021/08/04 02:39:29;;;;;;;8.32;7.07;;;;;;;;;;1478508;40;20421;-80
2021/08/04 02:40:31;;;;;;;7.38;6.63;;;;;;;;;;1470026;40;20402;-81
2021/08/04 02:41:33;;;;;;;7.78;7.03;;;;;;;;;;1470175;40;20475;-81
2021/08/04 02:42:37;;;;;;;7.85;6.88;;;;;;;;;;1470043;40;20409;-81
2021/08/04 02:43:40;;;;;;;7.45;6.68;;;;;;;;;;1474142;40;20391;-80
2021/08/04 02:44:41;;;;;;;7.30;6.60;;;;;;;;;;1478148;40;20398;-81
2021/08/04 02:45:44;;;;;;;8.77;6.65;;;;;;;;;;1478077;40;21083;-80
2021/08/04 02:46:46;;;;;;;7.67;6.93;;;;;;;;;;1478000;40;20582;-80
2021/08/04 02:47:49;;;;;;;8.43;7.18;;;;;;;;;;1478095;40;20501;-81
2021/08/04 02:48:50;;;;;;;7.20;6.50;;;;;;;;;;1478250;40;20417;-80
2021/08/04 02:49:52;;;;;;;7.70;7.00;;;;;;;;;;1478012;40;20418;-81
2021/08/04 02:50:58;;;;;;;8.38;6.55;;;;;;;;;;1477917;40;20422;-81
2021/08/04 02:52:01;;;;;;;7.27;6.67;;;;;;;;;;1478119;40;20673;-80
2021/08/04 02:53:03;;;;;;;9.63;6.80;;;;;;;;;;1478126;40;20417;-81
2021/08/04 02:54:05;;;;;;;7.70;6.67;;;;;;;;;;1477884;40;20482;-80
2021/08/04 02:55:08;;;;;;;7.75;6.90;;;;;;;;;;1477192;40;20771;-80
2021/08/04 02:56:09;;;;;;;8.32;7.50;;;;;;;;;;1478191;40;20664;-80
2021/08/04 02:57:11;;;;;;;11.32;7.57;;;;;;;;;;1477874;40;20409;-80
2021/08/04 02:58:13;;;;;;;8.30;7.53;;;;;;;;;;1473320;40;20464;-81
2021/08/04 02:59:14;;;;;;;7.88;7.13;;;;;;;;;;1473589;40;20517;-81
2021/08/04 03:00:16;;;;;;;8.98;8.07;;;;;;;;;;1477633;40;20450;-80
2021/08/04 03:01:18;;;;;;;7.13;6.47;;;;;;;;;;1477570;40;20836;-80
2021/08/04 03:02:19;;;;;;;8.73;7.82;;;;;;;;;;1477289;40;20454;-81
2021/08/04 03:03:21;;;;;;;11.88;7.85;;;;;;;;;;1477431;40;20858;-80
2021/08/04 03:04:23;;;;;;;9.50;7.13;;;;;;;;;;1469725;40;20414;-80
2021/08/04 03:05:25;;;;;;;8.15;7.30;;;;;;;;;;1473335;40;20549;-81
2021/08/04 03:06:26;;;;;;;7.93;7.22;;;;;;;;;;1477358;40;20445;-80
2021/08/04 03:07:28;;;;;;;9.60;7.53;;;;;;;;;;1473342;40;20424;-82
2021/08/04 03:08:29;;;;;;;8.82;7.40;;;;;;;;;;1473564;40;20471;-81
2021/08/04 03:09:31;;;;;;;7.80;7.10;;;;;;;;;;1477684;40;20418;-82
2021/08/04 03:10:33;;;;;;;8.35;7.40;;;;;;;;;;1473403;40;20432;-83
2021/08/04 03:11:34;;;;;;;8.43;7.55;;;;;;;;;;1469195;40;20825;-84
2021/08/04 03:12:36;;;;;;;9.75;7.80;;;;;;;;;;1473453;40;20797;-82
2021/08/04 03:13:38;;;;;;;10.90;8.00;;;;;;;;;;1469242;40;20935;-80
2021/08/04 03:14:39;;;;;;;8.40;7.60;;;;;;;;;;1469801;40;20413;-80
2021/08/04 03:15:41;;;;;;;8.60;7.35;;;;;;;;;;1473122;40;20407;-80
2021/08/04 03:16:44;;;;;;;8.82;7.30;;;;;;;;;;1473166;40;20450;-80
2021/08/04 03:17:46;;;;;;;8.50;7.68;;;;;;;;;;1473091;40;20415;-80
2021/08/04 03:18:49;;;;;;;8.40;7.60;;;;;;;;;;1468998;40;20540;-80
2021/08/04 03:19:50;;;;;;;8.63;7.82;;;;;;;;;;1473317;40;20463;-80
2021/08/04 03:20:52;;;;;;;8.07;7.37;;;;;;;;;;1473471;40;20955;-81
2021/08/04 03:21:54;;;;;;;8.52;7.72;;;;;;;;;;1473194;40;20470;-81
2021/08/04 03:22:55;;;;;;;9.05;8.10;;;;;;;;;;1473082;40;20443;-80
2021/08/04 03:23:57;;;;;;;8.45;7.65;;;;;;;;;;1473363;40;20404;-80
2021/08/04 03:24:58;;;;;;;9.05;7.78;;;;;;;;;;1469090;40;20485;-81
2021/08/04 03:26:00;;;;;;;10.27;7.95;;;;;;;;;;1469077;40;20416;-80
2021/08/04 03:27:02;;;;;;;12.07;7.88;;;;;;;;;;1477807;40;20791;-80
2021/08/04 03:28:04;;;;;;;9.45;8.30;;;;;;;;;;1473196;40;20412;-81
2021/08/04 03:29:06;;;;;;;8.70;7.80;;;;;;;;;;1469294;40;20421;-81
2021/08/04 03:30:08;;;;;;;9.10;8.30;;;;;;;;;;1469081;40;20761;-80
2021/08/04 03:31:10;;;;;;;8.95;8.15;;;;;;;;;;1473583;40;20412;-80
2021/08/04 03:32:12;;;;;;;9.02;7.60;;;;;;;;;;1478014;40;20406;-80
2021/08/04 03:33:14;;;;;;;9.25;8.40;;;;;;;;;;1477927;40;20413;-82
2021/08/04 03:34:15;;;;;;;9.77;8.23;;;;;;;;;;1477144;40;20406;-81
2021/08/04 03:35:17;;;;;;;9.60;8.70;;;;;;;;;;1477352;40;20462;-80
2021/08/04 03:36:19;;;;;;;9.98;9.07;;;;;;;;;;1477470;40;20401;-81
2021/08/04 03:37:20;;;;;;;11.50;8.63;;;;;;;;;;1473053;40;20396;-80
2021/08/04 03:38:22;;;;;;;9.00;8.10;;;;;;;;;;1473500;40;20527;-80
2021/08/04 03:39:23;;;;;;;10.20;9.15;;;;;;;;;;1477218;40;20843;-81
2021/08/04 03:40:25;;;;;;;9.48;8.52;;;;;;;;;;1472795;40;20507;-81
2021/08/04 03:41:27;;;;;;;9.82;8.82;;;;;;;;;;1473362;40;20523;-80
2021/08/04 03:42:29;;;;;;;9.80;8.85;;;;;;;;;;1473340;40;20986;-79
2021/08/04 03:43:30;;;;;;;11.95;8.88;;;;;;;;;;1473349;40;20420;-80
2021/08/04 03:44:33;;;;;;;9.35;8.40;;;;;;;;;;1473150;40;20564;-82
2021/08/04 03:45:34;;;;;;;10.18;9.13;;;;;;;;;;1465221;40;20435;-83
2021/08/04 03:46:36;;;;;;;10.00;9.00;;;;;;;;;;1469551;40;20791;-80
2021/08/04 03:47:38;;;;;;;9.48;8.57;;;;;;;;;;1468858;40;20675;-81
2021/08/04 03:48:39;;;;;;;10.23;9.23;;;;;;;;;;1465647;40;20503;-79
2021/08/04 03:49:41;;;;;;;12.68;8.68;;;;;;;;;;1474008;40;20415;-80
2021/08/04 03:50:43;;;;;;;9.70;8.77;;;;;;;;;;1473616;40;20424;-80
2021/08/04 03:51:44;;;;;;;12.80;9.32;;;;;;;;;;1469644;40;20456;-80
2021/08/04 03:52:46;;;;;;;17.13;8.80;;;;;;;;;;1470015;40;20413;-80
2021/08/04 03:53:47;;;;;;;10.27;9.27;;;;;;;;;;1469647;40;20858;-81
2021/08/04 03:54:52;;;;;;;10.10;9.15;;;;;;;;;;1465912;40;20407;-80
2021/08/04 03:55:54;;;;;;;10.23;9.23;;;;;;;;;;1466092;40;20971;-79
2021/08/04 03:56:56;;;;;;;9.73;8.82;;;;;;;;;;1474055;40;20495;-80
2021/08/04 03:57:57;;;;;;;10.32;9.30;;;;;;;;;;1469746;40;20569;-80
2021/08/04 03:59:00;;;;;;;9.57;8.52;;;;;;;;;;1469907;40;20441;-80
2021/08/04 04:00:04;;;;;;;9.80;8.80;;;;;;;;;;1473990;40;20408;-80
2021/08/04 04:01:06;;;;;;;11.63;8.93;;;;;;;;;;1477867;40;20497;-79
2021/08/04 04:02:08;;;;;;;9.88;8.98;;;;;;;;;;1477797;40;20810;-80
2021/08/04 04:03:11;;;;;;;10.25;9.32;;;;;;;;;;1478497;40;20402;-80
2021/08/04 04:04:14;;;;;;;10.63;9.63;;;;;;;;;;1473917;40;20514;-80
2021/08/04 04:05:15;;;;;;;10.48;9.48;;;;;;;;;;1473839;40;20503;-80
2021/08/04 04:06:17;;;;;;;10.60;9.50;;;;;;;;;;1477569;40;20727;-80
2021/08/04 04:07:19;;;;;;;10.82;9.73;;;;;;;;;;1473780;40;20403;-80
2021/08/04 04:08:20;;;;;;;11.10;9.18;;;;;;;;;;1473792;40;20486;-80
2021/08/04 04:09:22;;;;;;;11.43;10.23;;;;;;;;;;1469546;40;20811;-80
2021/08/04 04:10:23;;;;;;;11.13;9.27;;;;;;;;;;1469520;40;20437;-79
2021/08/04 04:11:25;;;;;;;11.98;10.40;;;;;;;;;;1473723;40;21064;-80
2021/08/04 04:12:28;;;;;;;10.88;9.63;;;;;;;;;;1473949;40;20403;-80
2021/08/04 04:13:29;;;;;;;10.55;9.20;;;;;;;;;;1477762;40;20515;-80
2021/08/04 04:14:31;;;;;;;11.25;9.70;;;;;;;;;;1473423;40;20519;-82
2021/08/04 04:15:33;;;;;;;13.30;10.35;;;;;;;;;;1469930;40;20476;-82
2021/08/04 04:16:36;;;;;;;9.93;8.52;;;;;;;;;;1470016;40;20410;-82
2021/08/04 04:17:37;;;;;;;10.18;9.10;;;;;;;;;;1474858;40;20416;-80
2021/08/04 04:18:39;;;;;;;11.10;9.32;;;;;;;;;;1474935;40;20404;-79
2021/08/04 04:19:40;;;;;;;12.68;10.27;;;;;;;;;;1471201;40;20742;-80
2021/08/04 04:20:42;;;;;;;11.30;10.10;;;;;;;;;;1471397;40;20521;-79
2021/08/04 04:21:44;;;;;;;10.75;9.60;;;;;;;;;;1471656;40;20463;-79
2021/08/04 04:22:45;;;;;;;11.98;9.60;;;;;;;;;;1471210;40;20764;-80
2021/08/04 04:23:47;;;;;;;10.50;9.50;;;;;;;;;;1470185;40;20390;-79
2021/08/04 04:24:49;;;;;;;10.60;9.60;;;;;;;;;;1473925;40;20443;-80
2021/08/04 04:25:50;;;;;;;10.82;9.73;;;;;;;;;;1477837;40;20772;-80
2021/08/04 04:26:52;;;;;;;10.43;9.48;;;;;;;;;;1477773;40;20904;-80
2021/08/04 04:27:53;;;;;;;12.02;9.77;;;;;;;;;;1478343;40;20508;-80
2021/08/04 04:28:55;;;;;;;11.07;9.53;;;;;;;;;;1478438;40;20551;-80
2021/08/04 04:29:59;;;;;;;10.90;9.80;;;;;;;;;;1473497;40;20880;-80
2021/08/04 04:31:00;;;;;;;10.88;9.88;;;;;;;;;;1465803;40;20505;-80
2021/08/04 04:32:02;;;;;;;10.48;9.48;;;;;;;;;;1469666;40;20548;-80
2021/08/04 04:33:04;;;;;;;10.73;9.63;;;;;;;;;;1473636;40;20459;-79
2021/08/04 04:34:06;;;;;;;12.00;10.68;;;;;;;;;;1469757;40;20477;-81
2021/08/04 04:35:08;;;;;;;10.20;8.90;;;;;;;;;;1473648;40;20534;-80
2021/08/04 04:36:10;;;;;;;10.73;9.63;;;;;;;;;;1473517;40;20444;-80
2021/08/04 04:37:11;;;;;;;11.15;9.95;;;;;;;;;;1469536;40;20465;-80
2021/08/04 04:38:14;;;;;;;11.18;9.93;;;;;;;;;;1473863;40;20796;-80
2021/08/04 04:39:15;;;;;;;10.93;9.93;;;;;;;;;;1469417;40;20433;-80
2021/08/04 04:40:17;;;;;;;12.52;9.18;;;;;;;;;;1469954;40;20457;-80
2021/08/04 04:41:18;;;;;;;10.50;9.48;;;;;;;;;;1473695;40;20419;-80
2021/08/04 04:42:20;;;;;;;10.43;9.48;;;;;;;;;;1473847;40;20443;-81
2021/08/04 04:43:21;;;;;;;11.13;9.98;;;;;;;;;;1478077;40;20512;-80
2021/08/04 04:44:25;;;;;;;10.68;9.55;;;;;;;;;;1478431;40;20540;-80
2021/08/04 04:45:27;;;;;;;11.00;9.82;;;;;;;;;;1478207;40;20454;-80
2021/08/04 04:46:28;;;;;;;10.05;9.15;;;;;;;;;;1469587;40;20474;-80
2021/08/04 04:47:30;;;;;;;10.90;9.73;;;;;;;;;;1465955;40;20483;-81
2021/08/04 04:48:31;;;;;;;10.38;9.35;;;;;;;;;;1473908;40;20766;-82
2021/08/04 04:49:33;;;;;;;11.35;10.25;;;;;;;;;;1473821;40;20408;-81
2021/08/04 04:50:35;;;;;;;12.18;10.00;;;;;;;;;;1473634;40;21154;-82
2021/08/04 04:51:36;;;;;;;10.55;9.50;;;;;;;;;;1469791;40;20473;-83
2021/08/04 04:52:39;;;;;;;10.40;9.50;;;;;;;;;;1469864;40;20421;-80
2021/08/04 04:53:41;;;;;;;11.50;10.40;;;;;;;;;;1474037;40;20392;-80
2021/08/04 04:54:42;;;;;;;12.93;10.60;;;;;;;;;;1474504;40;20562;-80
2021/08/04 04:55:44;;;;;;;10.68;9.57;;;;;;;;;;1466938;40;20467;-79
2021/08/04 04:56:45;;;;;;;10.45;9.55;;;;;;;;;;1472444;40;20835;-80
2021/08/04 04:57:47;;;;;;;10.45;9.45;;;;;;;;;;1472196;40;20480;-80
2021/08/04 04:58:49;;;;;;;11.00;10.00;;;;;;;;;;1477201;40;20918;-82
2021/08/04 04:59:50;;;;;;;10.57;9.57;;;;;;;;;;1478434;40;20470;-81
2021/08/04 05:00:52;;;;;;;10.30;9.30;;;;;;;;;;1475437;40;20517;-81
2021/08/04 05:01:54;;;;;;;10.80;9.57;;;;;;;;;;1479463;40;20415;-80
2021/08/04 05:02:56;;;;;;;10.15;9.15;;;;;;;;;;1483280;40;20399;-81
2021/08/04 05:03:58;;;;;;;10.48;9.40;;;;;;;;;;1484448;40;20429;-79
2021/08/04 05:04:59;;;;;;;10.75;9.43;;;;;;;;;;1480303;40;20407;-80
2021/08/04 05:06:01;;;;;;;10.38;9.40;;;;;;;;;;1478897;40;20411;-80
2021/08/04 05:07:02;;;;;;;10.48;9.30;;;;;;;;;;1475845;40;20404;-80
2021/08/04 05:08:04;;;;;;;10.07;8.93;;;;;;;;;;1476821;40;20468;-79
2021/08/04 05:09:06;;;;;;;10.43;9.40;;;;;;;;;;1475237;40;20426;-79
2021/08/04 05:10:08;;;;;;;11.30;10.10;;;;;;;;;;1475001;40;20771;-80
2021/08/04 05:11:09;;;;;;;10.23;8.95;;;;;;;;;;1480388;40;20472;-80
2021/08/04 05:12:11;;;;;;;10.18;9.27;;;;;;;;;;1476159;40;20448;-80
2021/08/04 05:13:12;;;;;;;11.05;9.00;;;;;;;;;;1471724;40;20413;-79
2021/08/04 05:14:14;;;;;;;10.38;8.95;;;;;;;;;;1471559;40;20422;-79
2021/08/04 05:15:16;;;;;;;9.75;8.85;;;;;;;;;;1466883;40;20400;-80
2021/08/04 05:16:17;;;;;;;10.43;9.43;;;;;;;;;;1466834;40;20463;-81
2021/08/04 05:17:19;;;;;;;10.32;9.32;;;;;;;;;;1470164;40;20485;-80
2021/08/04 05:18:21;;;;;;;10.10;8.98;;;;;;;;;;1474275;40;20482;-80
2021/08/04 05:19:22;;;;;;;10.02;9.05;;;;;;;;;;1478524;40;20525;-80
2021/08/04 05:20:24;;;;;;;9.88;8.63;;;;;;;;;;1474102;40;20502;-80
2021/08/04 05:21:25;;;;;;;9.18;8.23;;;;;;;;;;1474089;40;20400;-80
2021/08/04 05:22:27;;;;;;;10.05;9.02;;;;;;;;;;1469410;40;20458;-80
2021/08/04 05:23:29;;;;;;;9.93;9.02;;;;;;;;;;1465757;40;20424;-81
2021/08/04 05:24:30;;;;;;;9.70;8.70;;;;;;;;;;1469861;40;21202;-81
2021/08/04 05:25:32;;;;;;;9.20;8.35;;;;;;;;;;1473936;40;20550;-80
2021/08/04 05:26:33;;;;;;;9.30;8.52;;;;;;;;;;1473615;40;20431;-80
2021/08/04 05:27:35;;;;;;;9.23;8.43;;;;;;;;;;1469208;40;20868;-83
2021/08/04 05:28:37;;;;;;;9.75;8.45;;;;;;;;;;1473314;40;20475;-81
2021/08/04 05:29:38;;;;;;;9.30;8.40;;;;;;;;;;1473568;40;20456;-82
2021/08/04 05:30:40;;;;;;;9.93;8.85;;;;;;;;;;1473661;40;20481;-81
2021/08/04 05:31:41;;;;;;;9.30;8.40;;;;;;;;;;1473385;40;20424;-80
2021/08/04 05:32:43;;;;;;;11.45;8.23;;;;;;;;;;1477374;40;20394;-82
2021/08/04 05:33:46;;;;;;;9.25;8.35;;;;;;;;;;1474135;40;20407;-82
2021/08/04 05:34:47;;;;;;;9.38;7.88;;;;;;;;;;1473906;40;20411;-81
2021/08/04 05:35:50;;;;;;;8.60;7.70;;;;;;;;;;1469094;40;20417;-80
2021/08/04 05:36:51;;;;;;;9.60;8.70;;;;;;;;;;1469206;40;20449;-81
2021/08/04 05:37:53;;;;;;;9.48;8.65;;;;;;;;;;1473797;40;20477;-79
2021/08/04 05:38:57;;;;;;;8.70;7.90;;;;;;;;;;1473500;40;21011;-80
2021/08/04 05:39:59;;;;;;;8.90;7.97;;;;;;;;;;1477473;40;20413;-80
2021/08/04 05:41:00;;;;;;;9.43;8.52;;;;;;;;;;1477831;40;20405;-80
2021/08/04 05:42:02;;;;;;;8.70;7.90;;;;;;;;;;1473812;40;20460;-81
2021/08/04 05:43:03;;;;;;;12.45;8.60;;;;;;;;;;1474010;40;20451;-80
2021/08/04 05:44:06;;;;;;;8.50;7.70;;;;;;;;;;1473242;40;21024;-80
2021/08/04 05:45:08;;;;;;;9.27;8.38;;;;;;;;;;1473620;40;20535;-80
2021/08/04 05:46:09;;;;;;;10.00;8.13;;;;;;;;;;1473458;40;20481;-80
2021/08/04 05:47:12;;;;;;;9.95;9.02;;;;;;;;;;1469501;40;20487;-81
2021/08/04 05:48:13;;;;;;;9.63;8.63;;;;;;;;;;1465454;40;20407;-80
2021/08/04 05:49:15;;;;;;;8.68;7.88;;;;;;;;;;1465799;40;20423;-80
2021/08/04 05:50:17;;;;;;;9.52;8.52;;;;;;;;;;1469161;40;20502;-80
2021/08/04 05:51:18;;;;;;;9.15;8.23;;;;;;;;;;1469486;40;20406;-80
2021/08/04 05:52:20;;;;;;;11.43;8.90;;;;;;;;;;1469363;40;20402;-80
2021/08/04 05:53:22;;;;;;;10.32;8.25;;;;;;;;;;1473456;40;20416;-81
2021/08/04 05:54:23;;;;;;;9.77;8.60;;;;;;;;;;1473441;40;20404;-80
2021/08/04 05:55:25;;;;;;;9.23;8.43;;;;;;;;;;1469329;40;20418;-80
2021/08/04 05:56:27;;;;;;;9.68;8.60;;;;;;;;;;1473457;40;20436;-80
2021/08/04 05:57:28;;;;;;;10.23;8.57;;;;;;;;;;1473774;40;20891;-81
2021/08/04 05:58:30;;;;;;;9.57;8.48;;;;;;;;;;1473433;40;20527;-81
2021/08/04 05:59:31;;;;;;;10.63;8.32;;;;;;;;;;1473684;40;20526;-82
2021/08/04 06:00:33;;;;;;;9.30;8.07;;;;;;;;;;1473439;40;20500;-83
2021/08/04 06:01:35;;;;;;;8.82;7.93;;;;;;;;;;1469520;40;20414;-85
2021/08/04 06:02:36;;;;;;;9.27;8.38;;;;;;;;;;1469813;40;20533;-83
2021/08/04 06:03:38;;;;;;;12.50;8.82;;;;;;;;;;1473700;40;20496;-81
2021/08/04 06:04:40;;;;;;;9.88;8.05;;;;;;;;;;1473641;40;20515;-81
2021/08/04 06:05:46;;;;;;;8.55;7.75;;;;;;;;;;1473503;40;20396;-81
2021/08/04 06:06:48;;;;;;;9.02;8.13;;;;;;;;;;1469170;40;20424;-81
2021/08/04 06:07:49;;;;;;;9.20;7.82;;;;;;;;;;1469257;40;21208;-82
2021/08/04 06:08:51;;;;;;;10.20;7.78;;;;;;;;;;1469463;40;20436;-81
2021/08/04 06:09:53;;;;;;;8.93;8.13;;;;;;;;;;1469456;40;20488;-81
2021/08/04 06:10:57;;;;;;;9.32;8.27;;;;;;;;;;1473625;40;20413;-82
2021/08/04 06:11:59;;;;;;;10.48;8.35;;;;;;;;;;1473522;40;20439;-81
2021/08/04 06:13:00;;;;;;;11.05;8.38;;;;;;;;;;1469871;40;20425;-81
2021/08/04 06:14:20;;;;;;;9.45;8.27;;;;;;;;;;1469625;40;20416;-81
2021/08/04 06:15:22;;;;;;;9.80;8.57;;;;;;;;;;1469802;40;20410;-81
2021/08/04 06:16:24;;;;;;;10.00;7.72;;;;;;;;;;1465576;40;20550;-81
2021/08/04 06:17:26;;;;;;;8.95;8.13;;;;;;;;;;1469611;40;20409;-82
2021/08/04 06:18:27;;;;;;;9.55;7.88;;;;;;;;;;1469561;40;20433;-81